Portada
METAR-TAF:

METAR-TAF

Aeropuertos :

Albenga, Italia

latitud: 44-03N, longitud: 008-07E, altitud: 45 m

Observación

El informe se hizo hace 49 minutos, a las 10:50 UTC
Viento 9 kt del este-sureste, variando entre este y sureste
Temperatura 19°C
Humedad 21%
Presión 1021 hPa
Visibilidad 10 km o más
sin nubes por debajo de 1500 m y sin presencia de cumulonimbus.

METAR: LIMG 041050Z 11009KT 080V140 CAVOK 19/M04 Q1021

Hora: 13:39 (11:39 UTC)


TAF: falta

Observaciones y pronósticos meteorológicos de más de 4000 aeropuertos (mensajes METAR y TAF).

Los puntos amarillos y rojos representan las estaciones disponibles.

Ponga el ratón en el punto deseado para ver el nombre de la estación.

Haga clic para ver las observaciones y los pronósticos meteorológicos.

Para cambiar el mapa : haga clic en los botones verdes con una cruz de color negro para hacer un zoom, en el botón verde con un guión para alejar o en las flechas verdes para mapas adyacentes.


METAR-TAF: